Center Junction, Iowa
Current Conditions -  °F | °C
As of 10:15 AM on Saturday 20 Dec 2014 (Local Time) from KMXO Reporting Station
Haze Haze  
Wind Chill: 22°   Ceiling: 1800
Heat Index: 30°   Visibility: 5mi
Dew Point: 28°   Wind: 9mph
Humidity: 93%   Direction: 130°SE
Pressure: 30.23"   Gusts: NA
Location:  42.12°N, 91.09°W
Report Text: KMXO 201615Z AUTO 13008KT 5SM BR FEW011 OVC018 M01/M02 A3023 RMK AO2
Loading
Personal Weather Stations






























Interactive Weather Map New forecast layout! Learn more

10-Day Weather Forecast

Advertisements
Track Severe Weather on mobile